createdAt,value
2023-01-10T00:02:06.008Z,67.40
2023-01-10T00:04:34.273Z,70.50
2023-01-10T00:07:05.620Z,87.60
2023-01-10T00:09:33.737Z,69.10
2023-01-10T00:12:20.529Z,67.70
2023-01-10T00:14:48.673Z,67.30
2023-01-10T00:17:18.985Z,61.00
2023-01-10T00:19:50.572Z,71.30
2023-01-10T00:22:21.728Z,70.60
2023-01-10T00:24:50.981Z,65.20
2023-01-10T00:27:22.849Z,67.40
2023-01-10T00:29:56.655Z,69.90
2023-01-10T00:34:54.562Z,70.70
2023-01-10T00:37:23.680Z,97.40
2023-01-10T00:39:52.719Z,77.60
2023-01-10T00:42:40.016Z,66.00
2023-01-10T00:45:12.488Z,67.20
2023-01-10T00:47:41.601Z,67.50
2023-01-10T00:50:12.399Z,62.60
2023-01-10T00:52:41.143Z,66.40
2023-01-10T00:55:10.529Z,57.50
2023-01-10T00:57:39.591Z,60.70
2023-01-10T01:00:10.507Z,72.90
2023-01-10T04:02:08.763Z,50.40
2023-01-10T04:04:37.922Z,59.10
2023-01-10T04:07:07.650Z,56.10
2023-01-10T04:09:37.064Z,45.40
2023-01-10T04:12:06.382Z,45.30
2023-01-10T04:14:37.832Z,38.70
2023-01-10T04:17:07.123Z,44.00
2023-01-10T04:19:36.140Z,39.80
2023-01-10T04:22:06.496Z,36.50
2023-01-10T04:24:34.777Z,37.70
2023-01-10T04:27:04.184Z,41.20
2023-01-10T04:29:33.464Z,42.90
2023-01-10T04:32:02.172Z,38.10
2023-01-10T04:34:31.308Z,41.30
2023-01-10T04:37:00.285Z,34.20
2023-01-10T04:39:29.303Z,29.00
2023-01-10T04:41:58.313Z,34.60
2023-01-10T04:44:27.752Z,33.00
2023-01-10T04:46:56.685Z,37.10
2023-01-10T04:49:25.638Z,34.60
2023-01-10T04:51:54.659Z,30.80
2023-01-10T04:54:24.117Z,32.00
2023-01-10T04:56:53.264Z,30.10
2023-01-10T04:59:22.328Z,27.80
2023-01-10T05:01:51.185Z,27.00
2023-01-10T05:04:20.984Z,30.00
2023-01-10T05:06:50.263Z,27.10
2023-01-10T05:09:18.926Z,33.60
2023-01-10T05:11:47.697Z,33.20
2023-01-10T05:14:16.627Z,34.90
2023-01-10T05:16:45.125Z,29.80
2023-01-10T05:19:13.296Z,30.10
2023-01-10T05:21:42.235Z,34.90
2023-01-10T05:24:11.626Z,44.80
2023-01-10T05:26:40.549Z,45.90
2023-01-10T05:29:12.261Z,45.50
2023-01-10T05:31:41.952Z,51.90
2023-01-10T05:34:13.690Z,183.40
2023-01-10T05:36:42.680Z,136.30
2023-01-10T05:39:11.546Z,93.00
2023-01-10T05:41:41.266Z,67.60
2023-01-10T05:44:10.203Z,57.30
2023-01-10T05:46:39.392Z,89.60
2023-01-10T05:49:08.514Z,98.50
2023-01-10T05:51:37.413Z,60.30
2023-01-10T05:54:06.863Z,74.50
2023-01-10T05:57:11.626Z,82.90
2023-01-10T05:59:40.782Z,41.40
2023-01-10T06:02:09.778Z,42.60
2023-01-10T06:04:42.499Z,76.50
2023-01-10T06:07:11.741Z,81.20
2023-01-10T06:09:40.502Z,72.20
2023-01-10T06:12:09.189Z,88.90
2023-01-10T06:14:37.688Z,68.50
2023-01-10T06:17:10.752Z,50.20
2023-01-10T06:19:39.889Z,40.30
2023-01-10T06:22:08.727Z,47.20
2023-01-10T06:24:37.686Z,36.60
2023-01-10T06:27:06.655Z,31.30
2023-01-10T06:29:35.350Z,37.10
2023-01-10T06:32:03.834Z,35.90
2023-01-10T06:34:32.128Z,32.50
2023-01-10T06:37:00.435Z,34.50
2023-01-10T06:39:32.205Z,36.20
2023-01-10T06:42:00.658Z,32.80
2023-01-10T06:44:29.421Z,34.70
2023-01-10T06:46:58.610Z,34.30
2023-01-10T06:49:27.633Z,29.10
2023-01-10T06:51:57.025Z,32.60
2023-01-10T06:54:25.895Z,30.70
2023-01-10T06:56:55.389Z,33.20
2023-01-10T06:59:24.195Z,29.40
2023-01-10T07:01:53.187Z,32.60
2023-01-10T07:04:21.455Z,36.00
2023-01-10T07:06:50.487Z,31.80
2023-01-10T07:09:19.109Z,33.90
2023-01-10T07:11:50.784Z,29.90
2023-01-10T07:14:19.827Z,28.60
2023-01-10T07:16:49.186Z,31.50
2023-01-10T07:19:18.740Z,36.30
2023-01-10T07:21:48.329Z,47.40
2023-01-10T07:24:17.282Z,45.40
2023-01-10T07:26:45.500Z,76.80
2023-01-10T07:29:14.347Z,61.00
2023-01-10T07:31:43.372Z,51.70
2023-01-10T07:34:12.823Z,67.20
2023-01-10T07:36:44.269Z,39.50
2023-01-10T07:39:13.703Z,41.80
2023-01-10T07:41:41.933Z,51.40
2023-01-10T07:44:11.138Z,43.80
2023-01-10T07:46:39.282Z,44.10
2023-01-10T07:49:07.454Z,33.40
2023-01-10T07:51:35.709Z,29.40
2023-01-10T07:54:04.658Z,21.90
2023-01-10T07:56:33.417Z,26.00
2023-01-10T07:59:02.342Z,26.00
2023-01-10T08:01:30.480Z,29.00
2023-01-10T08:03:59.250Z,35.10
2023-01-10T08:06:27.713Z,32.10
2023-01-10T08:08:56.607Z,54.10
2023-01-10T08:11:24.937Z,43.90
2023-01-10T08:13:53.889Z,53.00
2023-01-10T08:16:22.455Z,61.60
2023-01-10T08:18:50.691Z,72.80
2023-01-10T08:21:18.906Z,63.80
2023-01-10T08:23:47.302Z,77.20
2023-01-10T08:26:16.184Z,81.00
2023-01-10T08:28:47.564Z,76.20
2023-01-10T08:31:19.405Z,99.50
2023-01-10T08:33:48.537Z,79.00
2023-01-10T08:36:18.622Z,70.80
2023-01-10T08:38:48.478Z,48.00
2023-01-10T08:41:20.470Z,46.30
2023-01-10T08:43:52.883Z,45.60
2023-01-10T08:46:22.010Z,39.90
2023-01-10T08:48:52.127Z,33.10
2023-01-10T08:51:21.377Z,31.80
2023-01-10T08:53:50.439Z,25.70
2023-01-10T08:56:19.474Z,33.10
2023-01-10T08:58:48.278Z,34.70
2023-01-10T09:01:16.924Z,41.70
2023-01-10T09:03:45.330Z,55.30
2023-01-10T09:06:14.378Z,98.50
2023-01-10T09:08:43.316Z,62.50
2023-01-10T09:11:12.551Z,60.60
2023-01-10T09:13:42.731Z,46.50
2023-01-10T09:16:11.679Z,47.60
2023-01-10T09:18:40.098Z,45.30
2023-01-10T09:21:08.409Z,53.60
2023-01-10T09:23:37.420Z,54.00
2023-01-10T09:26:07.088Z,50.80
2023-01-10T09:28:35.460Z,44.90
2023-01-10T09:31:04.664Z,49.70
2023-01-10T09:33:45.784Z,49.30
2023-01-10T09:36:16.208Z,42.30
2023-01-10T09:38:45.168Z,47.40
2023-01-10T09:41:58.343Z,41.30
2023-01-10T09:44:57.350Z,44.60
2023-01-10T09:47:48.905Z,45.70
2023-01-10T09:50:47.603Z,38.50
2023-01-10T09:53:23.069Z,44.50
2023-01-10T09:55:56.654Z,60.80
2023-01-10T09:58:28.131Z,65.30
2023-01-10T10:01:04.880Z,61.50
2023-01-10T10:03:50.352Z,80.10
2023-01-10T10:06:19.299Z,62.90
2023-01-10T10:08:48.625Z,47.10
2023-01-10T10:11:26.879Z,41.60
2023-01-10T10:14:17.025Z,29.40
2023-01-10T10:16:54.090Z,34.60
2023-01-10T10:19:38.614Z,55.30
2023-01-10T10:22:30.355Z,32.00
2023-01-10T10:25:19.997Z,30.40
2023-01-10T10:28:19.178Z,29.00
2023-01-10T10:31:03.713Z,40.80
2023-01-10T10:34:01.908Z,45.80
2023-01-10T10:36:51.485Z,187.00
2023-01-10T10:39:25.781Z,55.50
2023-01-10T10:41:56.869Z,98.10
2023-01-10T10:44:42.090Z,64.80
2023-01-10T10:47:16.358Z,44.00
2023-01-10T10:49:55.413Z,66.80
2023-01-10T10:52:32.585Z,32.10
2023-01-10T10:55:03.344Z,26.60
2023-01-10T10:57:35.836Z,61.60
2023-01-10T11:00:07.975Z,40.10
2023-01-10T11:02:52.548Z,35.40
2023-01-10T11:05:35.865Z,40.10
2023-01-10T11:08:14.421Z,70.50
2023-01-10T11:11:08.273Z,43.40
2023-01-10T11:13:49.398Z,504.30
2023-01-10T11:16:37.354Z,275.50
2023-01-10T11:19:19.308Z,559.30
2023-01-10T11:21:57.713Z,74.30
2023-01-10T11:24:54.235Z,59.60
2023-01-10T11:27:42.241Z,41.00
2023-01-10T11:30:38.538Z,44.70
2023-01-10T11:33:18.295Z,82.10
2023-01-10T11:36:13.350Z,233.40
2023-01-10T11:38:42.822Z,76.30
2023-01-10T11:41:20.718Z,138.90
2023-01-10T11:43:49.775Z,60.50
2023-01-10T11:46:26.310Z,67.30
2023-01-10T11:49:08.496Z,38.90
2023-01-10T11:51:40.965Z,35.30
2023-01-10T11:54:20.910Z,49.20
2023-01-10T11:56:59.596Z,36.10
2023-01-10T11:59:29.562Z,40.90
2023-01-10T12:02:12.032Z,41.30
2023-01-10T12:04:47.465Z,313.60
2023-01-10T12:07:19.188Z,93.80
2023-01-10T12:09:59.989Z,65.60
2023-01-10T12:12:33.890Z,47.30
2023-01-10T12:15:26.192Z,39.10
2023-01-10T12:18:06.440Z,45.90
2023-01-10T12:20:47.894Z,51.10
2023-01-10T12:23:26.294Z,39.40
2023-01-10T12:26:11.134Z,39.70
2023-01-10T12:28:58.846Z,40.80
2023-01-10T12:31:31.865Z,43.70
2023-01-10T12:34:10.326Z,43.30
2023-01-10T12:37:01.706Z,45.50
2023-01-10T12:39:38.184Z,50.40
2023-01-10T12:42:28.395Z,70.10
2023-01-10T12:45:33.477Z,65.10
2023-01-10T12:48:17.447Z,62.60
2023-01-10T12:54:08.784Z,60.00
2023-01-10T12:59:37.678Z,46.10
2023-01-10T13:02:15.756Z,45.50
2023-01-10T13:04:50.602Z,51.70
2023-01-10T13:07:21.339Z,53.50
2023-01-10T13:09:51.685Z,64.60
2023-01-10T13:12:35.779Z,51.00
2023-01-10T13:15:07.962Z,66.80
2023-01-10T13:17:44.974Z,55.00
2023-01-10T13:20:23.353Z,58.80
2023-01-10T13:23:01.646Z,61.30
2023-01-10T13:25:35.515Z,78.90
2023-01-10T13:28:20.415Z,68.50
2023-01-10T13:30:55.177Z,58.10
2023-01-10T13:33:30.476Z,83.40
2023-01-10T13:36:19.084Z,77.50
2023-01-10T13:38:56.361Z,79.50
2023-01-10T13:41:44.753Z,79.00
2023-01-10T13:44:16.062Z,82.90
2023-01-10T13:46:47.311Z,75.70
2023-01-10T13:49:26.593Z,75.50
2023-01-10T13:52:21.766Z,75.70
2023-01-10T13:55:03.929Z,75.50
2023-01-10T13:58:04.184Z,61.30
2023-01-10T14:00:55.070Z,55.30
2023-01-10T14:03:50.810Z,54.10
2023-01-10T14:06:32.926Z,58.00
2023-01-10T14:09:08.041Z,65.30
2023-01-10T14:11:46.112Z,56.70
2023-01-10T14:14:40.364Z,47.30
2023-01-10T14:17:30.688Z,70.20
2023-01-10T14:20:07.774Z,54.00
2023-01-10T14:22:43.265Z,64.70
2023-01-10T14:25:35.160Z,57.30
2023-01-10T14:28:15.838Z,69.00
2023-01-10T14:30:56.737Z,60.20
2023-01-10T14:33:27.098Z,91.00
2023-01-10T14:36:01.639Z,377.10
2023-01-10T14:38:34.383Z,136.70
2023-01-10T14:41:25.573Z,92.80
2023-01-10T14:43:58.575Z,74.20
2023-01-10T14:46:38.912Z,81.00
2023-01-10T14:49:37.998Z,84.60
2023-01-10T14:52:20.486Z,77.40
2023-01-10T14:55:11.738Z,88.40
2023-01-10T14:57:40.928Z,109.10
2023-01-10T15:00:17.813Z,178.70
2023-01-10T15:02:48.814Z,207.10
2023-01-10T15:05:27.101Z,88.80
2023-01-10T15:08:15.301Z,80.60
2023-01-10T15:10:47.824Z,75.50
2023-01-10T15:13:19.172Z,113.50
2023-01-10T15:15:50.440Z,116.00
2023-01-10T15:18:44.080Z,103.20
2023-01-10T15:21:15.471Z,107.80
2023-01-10T15:23:46.933Z,98.70
2023-01-10T15:26:24.875Z,75.60
2023-01-10T15:29:14.969Z,71.60
2023-01-10T15:31:44.819Z,72.10
2023-01-10T15:34:23.174Z,78.80
2023-01-10T15:37:03.400Z,82.20
2023-01-10T15:39:39.665Z,85.00
2023-01-10T15:42:11.829Z,88.70
2023-01-10T15:44:46.695Z,93.10
2023-01-10T15:47:49.340Z,95.00
2023-01-10T15:50:34.358Z,124.00
2023-01-10T15:53:14.209Z,127.80
2023-01-10T15:55:54.185Z,98.30
2023-01-10T15:58:32.886Z,76.80
2023-01-10T16:01:02.231Z,89.40
2023-01-10T16:03:37.163Z,100.70
2023-01-10T16:06:12.577Z,95.10
2023-01-10T16:08:41.770Z,83.00
2023-01-10T16:11:43.964Z,76.90
2023-01-10T16:14:12.648Z,83.20
2023-01-10T16:16:41.521Z,74.20
2023-01-10T16:19:12.304Z,78.30
2023-01-10T16:21:47.135Z,80.20
2023-01-10T16:24:23.509Z,73.10
2023-01-10T16:26:53.254Z,84.80
2023-01-10T16:29:23.619Z,94.30
2023-01-10T16:31:53.863Z,94.00
2023-01-10T16:34:23.019Z,91.20
2023-01-10T16:36:52.340Z,92.60
2023-01-10T16:39:22.887Z,90.50
2023-01-10T16:42:09.946Z,95.30
2023-01-10T16:44:39.167Z,123.90
2023-01-10T16:47:08.188Z,105.20
2023-01-10T16:49:37.384Z,102.70
2023-01-10T16:52:07.477Z,110.30
2023-01-10T16:54:38.335Z,126.00
2023-01-10T16:57:12.310Z,109.30
2023-01-10T16:59:42.058Z,106.40
2023-01-10T17:02:18.485Z,97.50
2023-01-10T17:04:47.693Z,84.80
2023-01-10T17:07:16.127Z,72.30
2023-01-10T17:09:44.892Z,80.40
2023-01-10T17:12:19.601Z,95.90
2023-01-10T17:14:49.046Z,302.90
2023-01-10T17:17:18.459Z,136.20
2023-01-10T17:19:47.907Z,119.90
2023-01-10T17:22:16.907Z,143.40
2023-01-10T17:24:46.323Z,112.30
2023-01-10T17:27:15.231Z,108.20
2023-01-10T17:29:47.180Z,101.70
2023-01-10T17:32:16.404Z,89.50
2023-01-10T17:34:45.589Z,91.00
2023-01-10T17:37:14.597Z,95.00
2023-01-10T17:39:43.816Z,152.40
2023-01-10T17:42:12.205Z,189.80
2023-01-10T17:44:41.342Z,170.20
2023-01-10T17:47:10.868Z,160.40
2023-01-10T17:49:42.615Z,123.90
2023-01-10T17:52:11.533Z,108.40
2023-01-10T17:54:40.423Z,118.40
2023-01-10T17:57:09.744Z,96.70
2023-01-10T17:59:38.743Z,83.20
2023-01-10T18:02:17.309Z,89.40
2023-01-10T18:04:46.729Z,80.00
2023-01-10T18:07:15.720Z,78.10
2023-01-10T18:09:44.479Z,85.60
2023-01-10T18:12:12.971Z,105.90
2023-01-10T18:14:42.571Z,94.20
2023-01-10T18:17:12.604Z,91.80
2023-01-10T18:19:40.916Z,126.80
2023-01-10T18:22:30.708Z,134.70
2023-01-10T18:24:59.968Z,147.50
2023-01-10T18:27:28.942Z,140.90
2023-01-10T18:29:57.961Z,142.40
2023-01-10T18:32:26.507Z,137.40
2023-01-10T18:34:55.470Z,127.20
2023-01-10T18:37:24.489Z,170.90
2023-01-10T18:39:53.409Z,125.80
2023-01-10T18:42:21.874Z,143.50
2023-01-10T18:44:50.685Z,115.50
2023-01-10T18:47:19.002Z,110.00
2023-01-10T18:49:48.636Z,95.70
2023-01-10T18:52:17.462Z,105.20
2023-01-10T18:54:48.202Z,98.90
2023-01-10T18:57:17.342Z,120.80
2023-01-10T18:59:46.430Z,105.20
2023-01-10T19:02:16.259Z,106.40
2023-01-10T19:04:45.499Z,102.20
2023-01-10T19:07:19.126Z,104.20
2023-01-10T19:09:48.316Z,89.10
2023-01-10T19:12:20.598Z,116.80
2023-01-10T19:14:49.857Z,109.50
2023-01-10T19:17:19.465Z,94.80
2023-01-10T19:19:49.258Z,99.70
2023-01-10T19:22:20.267Z,92.40
2023-01-10T19:24:49.545Z,98.40
2023-01-10T19:27:21.023Z,87.80
2023-01-10T19:29:50.251Z,105.70
2023-01-10T19:32:19.934Z,139.10
2023-01-10T19:34:51.562Z,130.20
2023-01-10T19:37:20.426Z,126.30
2023-01-10T19:39:48.684Z,148.70
2023-01-10T19:42:17.033Z,154.00
2023-01-10T19:44:46.782Z,155.20
2023-01-10T19:47:18.775Z,145.40
2023-01-10T19:49:47.053Z,129.70
2023-01-10T19:52:15.556Z,121.60
2023-01-10T19:54:44.874Z,133.30
2023-01-10T19:57:14.587Z,131.60
2023-01-10T19:59:45.786Z,124.10
2023-01-10T20:02:14.430Z,130.20
2023-01-10T20:04:46.298Z,135.10
2023-01-10T20:07:15.991Z,170.30
2023-01-10T20:09:45.539Z,332.10
2023-01-10T20:12:15.106Z,353.30
2023-01-10T20:14:43.581Z,432.70
2023-01-10T20:17:12.451Z,397.80
2023-01-10T20:19:44.428Z,340.20
2023-01-10T20:22:15.473Z,261.50
2023-01-10T20:24:44.719Z,223.00
2023-01-10T20:27:14.237Z,206.10
2023-01-10T20:29:45.884Z,179.40
2023-01-10T20:32:17.590Z,153.80
2023-01-10T20:34:47.988Z,145.40
2023-01-10T20:37:17.139Z,114.00
2023-01-10T20:39:46.936Z,93.90
2023-01-10T20:42:15.324Z,109.10
2023-01-10T20:44:43.572Z,142.90
2023-01-10T20:47:13.285Z,153.40
2023-01-10T20:49:41.642Z,149.30
2023-01-10T20:52:10.272Z,140.00
2023-01-10T20:54:39.028Z,114.50
2023-01-10T20:57:07.742Z,114.10
2023-01-10T20:59:36.393Z,121.20
2023-01-10T21:02:04.873Z,108.40
2023-01-10T21:04:33.945Z,116.30
2023-01-10T21:07:02.436Z,111.70
2023-01-10T21:09:31.639Z,114.10
2023-01-10T21:12:23.368Z,111.40
2023-01-10T21:14:54.031Z,92.20
2023-01-10T21:17:23.322Z,89.60
2023-01-10T21:19:51.970Z,88.40
2023-01-10T21:22:20.351Z,109.80
2023-01-10T21:24:50.303Z,133.40
2023-01-10T21:27:19.582Z,146.20
2023-01-10T21:29:48.620Z,144.00
2023-01-10T21:32:16.739Z,119.00
2023-01-10T21:34:45.384Z,113.80
2023-01-10T21:37:14.545Z,129.50
2023-01-10T21:39:43.761Z,203.20
2023-01-10T21:42:48.214Z,275.40
2023-01-10T21:45:17.249Z,253.70
2023-01-10T21:47:45.700Z,198.50
2023-01-10T21:50:14.372Z,113.60
2023-01-10T21:52:44.282Z,112.20
2023-01-10T21:55:15.379Z,114.20
2023-01-10T21:57:43.739Z,115.20
2023-01-10T22:00:12.849Z,139.30
2023-01-10T22:02:41.254Z,131.00
2023-01-10T22:05:11.378Z,128.20
2023-01-10T22:07:39.846Z,135.60
2023-01-10T22:10:09.637Z,138.60
2023-01-10T22:12:38.941Z,140.20
2023-01-10T22:15:08.419Z,153.70
2023-01-10T22:17:37.085Z,130.50
2023-01-10T22:20:06.597Z,126.60
2023-01-10T22:22:34.925Z,125.70
2023-01-10T22:25:03.142Z,120.80
2023-01-10T22:27:31.379Z,127.20
2023-01-10T22:30:00.054Z,137.50
2023-01-10T22:32:28.289Z,166.20
2023-01-10T22:34:56.690Z,133.30
2023-01-10T22:37:25.311Z,145.90
2023-01-10T22:39:53.463Z,120.30
2023-01-10T22:42:22.115Z,107.10
2023-01-10T22:44:53.332Z,111.70
2023-01-10T22:47:22.293Z,111.70
2023-01-10T22:49:50.750Z,100.80
2023-01-10T22:52:18.926Z,118.30
2023-01-10T22:54:47.422Z,109.60
2023-01-10T22:57:16.215Z,98.30
2023-01-10T23:02:32.704Z,86.90
2023-01-10T23:05:01.967Z,84.00
2023-01-10T23:07:31.071Z,77.20
2023-01-10T23:09:59.608Z,91.30
2023-01-10T23:12:28.519Z,76.30
2023-01-10T23:14:57.296Z,78.20
2023-01-10T23:17:26.203Z,83.60
2023-01-10T23:19:55.137Z,102.20
2023-01-10T23:22:25.750Z,117.20
2023-01-10T23:24:55.094Z,121.40
2023-01-10T23:27:23.269Z,139.70
2023-01-10T23:29:51.960Z,123.90
2023-01-10T23:32:23.013Z,127.70
2023-01-10T23:34:51.901Z,126.10
2023-01-10T23:37:20.474Z,106.90
2023-01-10T23:39:49.510Z,79.40
2023-01-10T23:42:18.581Z,78.50
2023-01-10T23:44:47.785Z,72.80
2023-01-10T23:47:16.913Z,76.90
2023-01-10T23:49:45.931Z,72.60
2023-01-10T23:52:15.208Z,74.80
2023-01-10T23:54:44.110Z,72.00
2023-01-10T23:57:12.445Z,80.20
2023-01-10T23:59:41.330Z,84.50
